Time;durP1;ratioP1;P1;durP2;ratioP2;P2;SDS_P1;SDS_P2;PMS_P1;PMS_P2;Temp;Humidity;BMP_temperature;BMP_pressure;BME280_temperature;BME280_humidity;BME280_pressure;Samples;Min_cycle;Max_cycle;Signal;HPM_P1;HPM_P2
2022/02/24 00:02:20;;;;;;;;;;;6.80;99.90;;;;;;5089446;28;19947;-90
2022/02/24 00:04:45;;;;;;;;;;;6.70;99.90;;;;;;5085569;28;19991;-89
2022/02/24 00:07:11;;;;;;;;;;;6.70;99.90;;;;;;5087598;28;19998;-90
2022/02/24 00:09:36;;;;;;;;;;;6.70;99.90;;;;;;5108338;28;20242;-91
2022/02/24 00:12:03;;;;;;;;;;;6.70;99.90;;;;;;5100649;28;19912;-86
2022/02/24 00:14:29;;;;;;;;;;;6.70;99.90;;;;;;5107595;28;20326;-90
2022/02/24 00:16:54;;;;;;;;;;;6.70;99.90;;;;;;5103360;28;19948;-92
2022/02/24 00:19:20;;;;;;;;;;;6.70;99.90;;;;;;5098817;28;20269;-90
2022/02/24 00:21:45;;;;;;;;;;;6.70;99.90;;;;;;5094061;28;19969;-92
2022/02/24 00:24:11;;;;;;;;;;;6.70;99.90;;;;;;5087818;28;20319;-90
2022/02/24 00:26:37;;;;;;;;;;;6.70;99.90;;;;;;5106776;28;20299;-91
2022/02/24 00:29:03;;;;;;;;;;;6.70;99.90;;;;;;5089343;28;19919;-90
2022/02/24 00:31:28;;;;;;;;;;;6.70;99.90;;;;;;5091775;28;20318;-89
2022/02/24 00:33:54;;;;;;;;;;;6.60;99.90;;;;;;5090684;28;19912;-90
2022/02/24 00:36:19;;;;;;;;;;;6.60;99.90;;;;;;5080371;28;20367;-88
2022/02/24 00:38:45;;;;;;;;;;;6.60;99.90;;;;;;5097105;28;19920;-91
2022/02/24 00:41:10;;;;;;;;;;;6.60;99.90;;;;;;5095040;28;19923;-90
2022/02/24 00:43:36;;;;;;;;;;;6.60;99.90;;;;;;5093588;28;20057;-90
2022/02/24 00:46:03;;;;;;;;;;;6.70;99.90;;;;;;5090284;28;19916;-87
2022/02/24 00:49:02;;;;;;;;;;;6.70;99.90;;;;;;5084549;28;20319;-90
2022/02/24 00:51:28;;;;;;;;;;;6.70;99.90;;;;;;5086687;28;19980;-90
2022/02/24 00:53:54;;;;;;;;;;;6.70;99.90;;;;;;5098832;28;19912;-89
2022/02/24 00:56:19;;;;;;;;;;;6.60;99.90;;;;;;5080437;28;19914;-89
2022/02/24 00:58:45;;;;;;;;;;;6.70;99.90;;;;;;5097558;27;19915;-90
2022/02/24 01:01:10;;;;;;;;;;;6.70;99.90;;;;;;5104127;28;20002;-90
2022/02/24 01:03:36;;;;;;;;;;;6.60;99.90;;;;;;5085324;28;19911;-89
2022/02/24 01:06:02;;;;;;;;;;;6.60;99.90;;;;;;5091997;28;19922;-89
2022/02/24 01:08:27;;;;;;;;;;;6.70;99.90;;;;;;5088862;28;19916;-90
2022/02/24 01:10:53;;;;;;;;;;;6.70;99.90;;;;;;5090338;28;19912;-89
2022/02/24 01:13:20;;;;;;;;;;;6.60;99.90;;;;;;5093794;28;19956;-89
2022/02/24 01:15:45;;;;;;;;;;;6.60;99.90;;;;;;5089034;28;20323;-90
2022/02/24 01:18:11;;;;;;;;;;;6.60;99.90;;;;;;5095291;28;19923;-90
2022/02/24 01:20:37;;;;;;;;;;;6.60;99.90;;;;;;5105937;28;20210;-90
2022/02/24 01:23:03;;;;;;;;;;;6.60;99.90;;;;;;5089294;28;19916;-89
2022/02/24 01:25:28;;;;;;;;;;;6.60;99.90;;;;;;5117788;28;19912;-91
2022/02/24 01:27:54;;;;;;;;;;;6.60;99.90;;;;;;5089779;28;20446;-89
2022/02/24 01:30:20;;;;;;;;;;;6.60;99.90;;;;;;5093266;28;19916;-91
2022/02/24 01:32:45;;;;;;;;;;;6.60;99.90;;;;;;5108154;28;19912;-90
2022/02/24 01:35:12;;;;;;;;;;;6.70;99.90;;;;;;5083083;28;19945;-88
2022/02/24 01:37:37;;;;;;;;;;;6.60;99.90;;;;;;5099609;28;19973;-90
2022/02/24 01:40:03;;;;;;;;;;;6.60;99.90;;;;;;5079331;28;20270;-90
2022/02/24 01:42:29;;;;;;;;;;;6.60;99.90;;;;;;5084351;28;19928;-93
2022/02/24 01:44:55;;;;;;;;;;;6.70;99.90;;;;;;5092969;28;19915;-90
2022/02/24 01:47:20;;;;;;;;;;;6.70;99.90;;;;;;5090728;28;19947;-90
2022/02/24 01:49:46;;;;;;;;;;;6.70;99.90;;;;;;5086511;28;20299;-91
2022/02/24 01:52:12;;;;;;;;;;;6.60;99.90;;;;;;5088376;28;19920;-91
2022/02/24 01:54:38;;;;;;;;;;;6.70;99.90;;;;;;5086819;28;19911;-90
2022/02/24 01:57:04;;;;;;;;;;;6.70;99.90;;;;;;5080281;28;20231;-90
2022/02/24 01:59:30;;;;;;;;;;;6.60;99.90;;;;;;5096747;28;19908;-91
2022/02/24 02:01:56;;;;;;;;;;;6.60;99.90;;;;;;5113538;28;19918;-90
2022/02/24 02:04:22;;;;;;;;;;;6.60;99.90;;;;;;5083316;28;19927;-89
2022/02/24 02:06:47;;;;;;;;;;;6.60;99.90;;;;;;5079348;28;19911;-88
2022/02/24 02:09:13;;;;;;;;;;;6.60;99.90;;;;;;5095134;28;19911;-91
2022/02/24 02:11:39;;;;;;;;;;;6.60;99.90;;;;;;5083691;28;19912;-91
2022/02/24 02:14:08;;;;;;;;;;;6.60;99.90;;;;;;5097480;28;19953;-90
2022/02/24 02:16:34;;;;;;;;;;;6.70;99.90;;;;;;5078733;28;19918;-90
2022/02/24 02:18:59;;;;;;;;;;;6.60;99.90;;;;;;5079484;28;19912;-88
2022/02/24 02:21:25;;;;;;;;;;;6.70;99.90;;;;;;5094906;28;20285;-91
2022/02/24 02:23:50;;;;;;;;;;;6.70;99.90;;;;;;5095416;28;19911;-89
2022/02/24 02:26:16;;;;;;;;;;;6.70;99.90;;;;;;5117337;28;19915;-91
2022/02/24 02:28:42;;;;;;;;;;;6.70;99.90;;;;;;5090590;28;19915;-85
2022/02/24 02:31:07;;;;;;;;;;;6.60;99.90;;;;;;5083606;28;19913;-92
2022/02/24 02:33:33;;;;;;;;;;;6.70;99.90;;;;;;5092562;28;19919;-91
2022/02/24 02:35:58;;;;;;;;;;;6.70;99.90;;;;;;5104335;28;20326;-87
2022/02/24 02:38:24;;;;;;;;;;;6.60;99.90;;;;;;5095337;28;19919;-91
2022/02/24 02:40:49;;;;;;;;;;;6.70;99.90;;;;;;5088212;28;19923;-89
2022/02/24 02:43:15;;;;;;;;;;;6.70;99.90;;;;;;5093352;28;19912;-90
2022/02/24 02:45:40;;;;;;;;;;;6.60;99.90;;;;;;5087703;28;19922;-91
2022/02/24 02:48:06;;;;;;;;;;;6.70;99.90;;;;;;5090469;28;19909;-92
2022/02/24 02:50:32;;;;;;;;;;;6.70;99.90;;;;;;5115044;28;19916;-91
2022/02/24 02:53:02;;;;;;;;;;;6.70;99.90;;;;;;5087032;28;20307;-90
2022/02/24 02:55:28;;;;;;;;;;;6.70;99.90;;;;;;5098634;28;19912;-90
2022/02/24 02:57:53;;;;;;;;;;;6.70;99.90;;;;;;5089013;28;20421;-89
2022/02/24 03:00:19;;;;;;;;;;;6.70;99.90;;;;;;5108915;28;19908;-90
2022/02/24 03:02:44;;;;;;;;;;;6.70;99.90;;;;;;5093912;28;19960;-90
2022/02/24 03:05:10;;;;;;;;;;;6.70;99.90;;;;;;5094265;28;19915;-90
2022/02/24 03:07:36;;;;;;;;;;;6.70;99.90;;;;;;5083480;28;20609;-91
2022/02/24 03:10:02;;;;;;;;;;;6.60;99.90;;;;;;5091441;28;20315;-85
2022/02/24 03:12:28;;;;;;;;;;;6.60;99.90;;;;;;5093632;28;20299;-90
2022/02/24 03:14:53;;;;;;;;;;;6.60;99.90;;;;;;5092603;28;19912;-91
2022/02/24 03:17:19;;;;;;;;;;;6.60;99.90;;;;;;5087036;28;19958;-90
2022/02/24 03:19:44;;;;;;;;;;;6.60;99.90;;;;;;5093621;28;19958;-90
2022/02/24 03:22:11;;;;;;;;;;;6.60;99.90;;;;;;5090883;28;19908;-91
2022/02/24 03:24:37;;;;;;;;;;;6.50;99.90;;;;;;5099533;28;20346;-90
2022/02/24 03:27:03;;;;;;;;;;;6.50;99.90;;;;;;5100710;28;20011;-89
2022/02/24 03:29:29;;;;;;;;;;;6.50;99.90;;;;;;5093453;28;19912;-88
2022/02/24 03:31:56;;;;;;;;;;;6.50;99.90;;;;;;5111254;28;20325;-88
2022/02/24 03:34:22;;;;;;;;;;;6.50;99.90;;;;;;5088859;28;19981;-88
2022/02/24 03:36:47;;;;;;;;;;;6.50;99.90;;;;;;5097817;28;19912;-90
2022/02/24 03:39:13;;;;;;;;;;;6.40;99.90;;;;;;5094869;28;20214;-88
2022/02/24 03:41:38;;;;;;;;;;;6.40;99.90;;;;;;5082699;28;19920;-90
2022/02/24 03:44:04;;;;;;;;;;;6.40;99.90;;;;;;5081938;28;20002;-90
2022/02/24 03:46:30;;;;;;;;;;;6.40;99.90;;;;;;5091388;28;19923;-91
2022/02/24 03:48:56;;;;;;;;;;;6.30;99.90;;;;;;5096958;28;19919;-92
2022/02/24 03:51:21;;;;;;;;;;;6.30;99.90;;;;;;5089396;28;19916;-86
2022/02/24 03:53:47;;;;;;;;;;;6.30;99.90;;;;;;5091284;28;19919;-89
2022/02/24 03:56:13;;;;;;;;;;;6.20;99.90;;;;;;5089641;28;19965;-89
2022/02/24 03:58:38;;;;;;;;;;;6.20;99.90;;;;;;5090998;28;21508;-89
2022/02/24 04:01:04;;;;;;;;;;;6.20;99.90;;;;;;5106092;28;19912;-90
2022/02/24 04:03:29;;;;;;;;;;;6.20;99.90;;;;;;5097481;28;19957;-89
2022/02/24 04:05:55;;;;;;;;;;;6.20;99.90;;;;;;5082758;28;20486;-90
2022/02/24 04:08:21;;;;;;;;;;;6.10;99.90;;;;;;5088781;28;20006;-90
2022/02/24 04:10:46;;;;;;;;;;;6.10;99.90;;;;;;5098997;28;19908;-88
2022/02/24 04:13:12;;;;;;;;;;;6.10;99.90;;;;;;5080906;28;19915;-85
2022/02/24 04:15:38;;;;;;;;;;;6.10;99.90;;;;;;5130218;27;19907;-90
2022/02/24 04:18:04;;;;;;;;;;;6.10;99.90;;;;;;5089181;28;20226;-86
2022/02/24 04:20:30;;;;;;;;;;;6.00;99.90;;;;;;5092243;28;19912;-89
2022/02/24 04:22:55;;;;;;;;;;;6.10;99.90;;;;;;5099156;28;20346;-91
2022/02/24 04:25:21;;;;;;;;;;;6.00;99.90;;;;;;5081112;28;19920;-90
2022/02/24 04:27:47;;;;;;;;;;;6.10;99.90;;;;;;5097094;28;20319;-83
2022/02/24 04:30:12;;;;;;;;;;;6.10;99.90;;;;;;5084448;28;19919;-91
2022/02/24 04:32:39;;;;;;;;;;;6.00;99.90;;;;;;5100623;28;19908;-92
2022/02/24 04:35:05;;;;;;;;;;;6.10;99.90;;;;;;5118536;28;19912;-89
2022/02/24 04:37:31;;;;;;;;;;;6.20;99.90;;;;;;5104782;28;19908;-91
2022/02/24 04:39:56;;;;;;;;;;;6.20;99.90;;;;;;5088657;28;20212;-91
2022/02/24 04:42:22;;;;;;;;;;;6.30;99.90;;;;;;5088207;28;19920;-92
2022/02/24 04:44:47;;;;;;;;;;;6.30;99.90;;;;;;5080184;28;20011;-90
2022/02/24 04:47:13;;;;;;;;;;;6.30;99.90;;;;;;5088431;28;19968;-90
2022/02/24 04:49:38;;;;;;;;;;;6.30;99.90;;;;;;5093631;28;19961;-90
2022/02/24 04:52:04;;;;;;;;;;;6.30;99.90;;;;;;5081614;28;19912;-91
2022/02/24 04:54:29;;;;;;;;;;;6.40;99.90;;;;;;5080731;28;19920;-90
2022/02/24 04:56:55;;;;;;;;;;;6.40;99.90;;;;;;5094925;27;20263;-92
2022/02/24 04:59:21;;;;;;;;;;;6.40;99.90;;;;;;5085354;28;19916;-89
2022/02/24 05:01:46;;;;;;;;;;;6.50;99.90;;;;;;5091348;28;19916;-91
2022/02/24 05:04:12;;;;;;;;;;;6.50;99.90;;;;;;5086890;28;19915;-89
2022/02/24 05:06:37;;;;;;;;;;;6.50;99.90;;;;;;5085859;28;19912;-89
2022/02/24 05:09:03;;;;;;;;;;;6.50;99.90;;;;;;5110008;27;19912;-90
2022/02/24 05:11:28;;;;;;;;;;;6.50;99.90;;;;;;5094261;28;19912;-91
2022/02/24 05:13:54;;;;;;;;;;;6.60;99.90;;;;;;5094526;28;19912;-90
2022/02/24 05:16:19;;;;;;;;;;;6.50;99.90;;;;;;5082909;28;19919;-92
2022/02/24 05:18:45;;;;;;;;;;;6.50;99.90;;;;;;5084890;28;19912;-91
2022/02/24 05:21:10;;;;;;;;;;;6.50;99.90;;;;;;5079758;28;19912;-88
2022/02/24 05:23:37;;;;;;;;;;;6.50;99.90;;;;;;5094821;27;19915;-90
2022/02/24 05:26:02;;;;;;;;;;;6.50;99.90;;;;;;5107504;28;19920;-84
2022/02/24 05:28:28;;;;;;;;;;;6.50;99.90;;;;;;5086544;28;19912;-91
2022/02/24 05:30:59;;;;;;;;;;;6.50;99.90;;;;;;5096507;28;19919;-90
2022/02/24 05:33:25;;;;;;;;;;;6.50;99.90;;;;;;5088777;28;19918;-89
2022/02/24 05:35:51;;;;;;;;;;;6.50;99.90;;;;;;5087805;28;20112;-89
2022/02/24 05:38:17;;;;;;;;;;;6.50;99.90;;;;;;5103232;27;19994;-91
2022/02/24 05:40:42;;;;;;;;;;;6.50;99.90;;;;;;5093682;28;19920;-91
2022/02/24 05:43:08;;;;;;;;;;;6.50;99.90;;;;;;5107336;28;19943;-87
2022/02/24 05:45:33;;;;;;;;;;;6.50;99.90;;;;;;5108443;28;19969;-86
2022/02/24 05:47:59;;;;;;;;;;;6.50;99.90;;;;;;5094110;28;19916;-88
2022/02/24 05:50:24;;;;;;;;;;;6.50;99.90;;;;;;5114144;28;19935;-87
2022/02/24 05:52:50;;;;;;;;;;;6.50;99.90;;;;;;5080121;28;19908;-88
2022/02/24 05:55:15;;;;;;;;;;;6.50;99.90;;;;;;5099495;28;19916;-90
2022/02/24 05:57:42;;;;;;;;;;;6.50;99.90;;;;;;5115045;28;19915;-91
2022/02/24 06:00:08;;;;;;;;;;;6.50;99.90;;;;;;5090693;28;20226;-91
2022/02/24 06:02:33;;;;;;;;;;;6.50;99.90;;;;;;5108266;28;19965;-91
2022/02/24 06:04:59;;;;;;;;;;;6.50;99.90;;;;;;5098406;28;19939;-88
2022/02/24 06:07:24;;;;;;;;;;;6.50;99.90;;;;;;5083049;28;19923;-84
2022/02/24 06:09:50;;;;;;;;;;;6.50;99.90;;;;;;5091242;28;19935;-92
2022/02/24 06:12:16;;;;;;;;;;;6.50;99.90;;;;;;5091860;28;19913;-90
2022/02/24 06:14:41;;;;;;;;;;;6.50;99.90;;;;;;5109875;28;19916;-87
2022/02/24 06:17:07;;;;;;;;;;;6.50;99.90;;;;;;5094543;28;19958;-88
2022/02/24 06:19:32;;;;;;;;;;;6.50;99.90;;;;;;5090396;28;19908;-89
2022/02/24 06:21:58;;;;;;;;;;;6.50;99.90;;;;;;5091843;28;20303;-91
2022/02/24 06:24:24;;;;;;;;;;;6.60;99.90;;;;;;5108134;28;20218;-90
2022/02/24 06:26:49;;;;;;;;;;;6.50;99.90;;;;;;5101779;28;19922;-89
2022/02/24 06:29:15;;;;;;;;;;;6.50;99.90;;;;;;5085417;28;20211;-89
2022/02/24 06:31:41;;;;;;;;;;;6.50;99.90;;;;;;5105956;28;19988;-91
2022/02/24 06:34:06;;;;;;;;;;;6.50;99.90;;;;;;5097272;28;19918;-90
2022/02/24 06:36:32;;;;;;;;;;;6.50;99.90;;;;;;5090840;28;19921;-91
2022/02/24 06:38:58;;;;;;;;;;;6.50;99.90;;;;;;5105144;28;19973;-85
2022/02/24 06:41:24;;;;;;;;;;;6.50;99.90;;;;;;5100161;28;19974;-89
2022/02/24 06:43:50;;;;;;;;;;;6.60;99.90;;;;;;5103140;28;19915;-88
2022/02/24 06:46:18;;;;;;;;;;;6.60;99.90;;;;;;5101529;28;19916;-90
2022/02/24 06:48:44;;;;;;;;;;;6.50;99.90;;;;;;5092991;28;19958;-91
2022/02/24 06:51:09;;;;;;;;;;;6.60;99.90;;;;;;5090442;28;19969;-85
2022/02/24 06:53:35;;;;;;;;;;;6.60;99.90;;;;;;5111932;27;19916;-88
2022/02/24 06:56:00;;;;;;;;;;;6.50;99.90;;;;;;5111557;28;19919;-92
2022/02/24 06:58:26;;;;;;;;;;;6.60;99.90;;;;;;5098220;28;19911;-91
2022/02/24 07:00:52;;;;;;;;;;;6.60;99.90;;;;;;5091784;28;19912;-91
2022/02/24 07:03:18;;;;;;;;;;;6.60;99.90;;;;;;5091285;28;19916;-90
2022/02/24 07:05:44;;;;;;;;;;;6.60;99.90;;;;;;5098955;28;19918;-92
2022/02/24 07:08:09;;;;;;;;;;;6.60;99.90;;;;;;5110888;28;20202;-90
2022/02/24 07:10:35;;;;;;;;;;;6.60;99.90;;;;;;5097373;28;19912;-90
2022/02/24 07:13:00;;;;;;;;;;;6.60;99.90;;;;;;5098658;28;19915;-86
2022/02/24 07:15:26;;;;;;;;;;;6.60;99.90;;;;;;5094305;28;19950;-91
2022/02/24 07:17:52;;;;;;;;;;;6.70;99.90;;;;;;5090789;28;19930;-90
2022/02/24 07:20:18;;;;;;;;;;;6.70;99.90;;;;;;5097483;28;19912;-89
2022/02/24 07:22:44;;;;;;;;;;;6.70;99.90;;;;;;5113344;28;19919;-93
2022/02/24 07:25:12;;;;;;;;;;;6.70;99.90;;;;;;5096208;28;19915;-90
2022/02/24 07:27:38;;;;;;;;;;;6.70;99.90;;;;;;5089692;28;19978;-90
2022/02/24 07:30:04;;;;;;;;;;;6.80;99.90;;;;;;5085328;28;20492;-88
2022/02/24 07:32:30;;;;;;;;;;;6.80;99.90;;;;;;5100588;28;20346;-89
2022/02/24 07:34:55;;;;;;;;;;;6.90;99.90;;;;;;5100335;28;20016;-91
2022/02/24 07:37:22;;;;;;;;;;;6.80;99.90;;;;;;5100227;28;19970;-88
2022/02/24 07:39:48;;;;;;;;;;;6.90;99.90;;;;;;5101428;28;20210;-89
2022/02/24 07:42:14;;;;;;;;;;;6.90;99.90;;;;;;5106162;28;20007;-88
2022/02/24 07:44:39;;;;;;;;;;;7.00;99.90;;;;;;5094424;28;19911;-92
2022/02/24 07:47:05;;;;;;;;;;;7.00;99.90;;;;;;5096727;28;20002;-90
2022/02/24 07:49:30;;;;;;;;;;;7.00;99.90;;;;;;5096529;28;20290;-87
2022/02/24 07:51:56;;;;;;;;;;;7.10;99.90;;;;;;5093573;28;19916;-90
2022/02/24 07:54:22;;;;;;;;;;;7.10;99.90;;;;;;5113040;28;19927;-87
2022/02/24 07:56:49;;;;;;;;;;;7.10;99.90;;;;;;5100598;28;19962;-91
2022/02/24 07:59:15;;;;;;;;;;;7.20;99.90;;;;;;5092385;28;19912;-90
2022/02/24 08:01:40;;;;;;;;;;;7.20;99.90;;;;;;5096668;28;19935;-88
2022/02/24 08:04:06;;;;;;;;;;;7.20;99.90;;;;;;5090313;28;20353;-89
2022/02/24 08:06:31;;;;;;;;;;;7.20;99.90;;;;;;5098113;28;19927;-92
2022/02/24 08:08:57;;;;;;;;;;;7.30;99.90;;;;;;5091688;28;19916;-91
2022/02/24 08:11:23;;;;;;;;;;;7.20;99.90;;;;;;5097807;28;20316;-89
2022/02/24 08:13:48;;;;;;;;;;;7.30;99.90;;;;;;5097167;28;19916;-89
2022/02/24 08:16:14;;;;;;;;;;;7.20;99.90;;;;;;5096347;28;19934;-86
2022/02/24 08:18:39;;;;;;;;;;;7.20;99.90;;;;;;5111233;28;19918;-90
2022/02/24 08:21:05;;;;;;;;;;;7.30;99.90;;;;;;5095180;28;19912;-86
2022/02/24 08:23:30;;;;;;;;;;;7.30;99.90;;;;;;5089384;28;21175;-88
2022/02/24 08:25:56;;;;;;;;;;;7.30;99.90;;;;;;5094631;28;19927;-85
2022/02/24 08:28:21;;;;;;;;;;;7.30;99.90;;;;;;5098621;28;19926;-87
2022/02/24 08:30:47;;;;;;;;;;;7.30;99.90;;;;;;5092384;28;19973;-89
2022/02/24 08:33:13;;;;;;;;;;;7.40;99.90;;;;;;5097325;28;19995;-86
2022/02/24 08:35:38;;;;;;;;;;;7.40;99.90;;;;;;5087906;27;19916;-88
2022/02/24 08:38:05;;;;;;;;;;;7.50;99.90;;;;;;5102968;28;19915;-90
2022/02/24 08:40:31;;;;;;;;;;;7.50;99.90;;;;;;5112145;28;20315;-87
2022/02/24 08:42:59;;;;;;;;;;;7.50;99.90;;;;;;5091140;28;20037;-87
2022/02/24 08:45:25;;;;;;;;;;;7.50;99.90;;;;;;5099369;28;19991;-86
2022/02/24 08:47:51;;;;;;;;;;;7.50;99.90;;;;;;5092609;28;19942;-90
2022/02/24 08:50:17;;;;;;;;;;;7.60;99.90;;;;;;5085633;28;19916;-90
2022/02/24 08:52:43;;;;;;;;;;;7.50;99.90;;;;;;5087445;28;20228;-85
2022/02/24 08:55:08;;;;;;;;;;;7.60;99.90;;;;;;5105878;28;19915;-92
2022/02/24 08:57:34;;;;;;;;;;;7.60;99.90;;;;;;5095885;28;19912;-89
2022/02/24 09:00:00;;;;;;;;;;;7.70;99.90;;;;;;5100028;28;19987;-87
2022/02/24 09:02:27;;;;;;;;;;;7.80;99.90;;;;;;5099601;28;19924;-91
2022/02/24 09:04:55;;;;;;;;;;;7.80;99.90;;;;;;5098749;28;23236;-87
2022/02/24 09:07:21;;;;;;;;;;;7.90;99.90;;;;;;5095773;28;19915;-87
2022/02/24 09:09:46;;;;;;;;;;;7.90;99.90;;;;;;5099000;28;19950;-88
2022/02/24 09:12:12;;;;;;;;;;;8.10;99.90;;;;;;5089006;28;19920;-87
2022/02/24 09:14:37;;;;;;;;;;;8.90;99.90;;;;;;5094265;28;19911;-88
2022/02/24 09:17:03;;;;;;;;;;;9.70;99.90;;;;;;5091490;28;20006;-89
2022/02/24 09:19:29;;;;;;;;;;;10.30;99.90;;;;;;5109083;28;19962;-86
2022/02/24 09:21:55;;;;;;;;;;;10.20;99.90;;;;;;5081293;28;19916;-88
2022/02/24 09:24:21;;;;;;;;;;;9.60;99.90;;;;;;5112289;28;19915;-91
2022/02/24 09:26:47;;;;;;;;;;;9.10;99.90;;;;;;5087600;28;20010;-88
2022/02/24 09:29:14;;;;;;;;;;;8.90;99.90;;;;;;5098361;28;19963;-87
2022/02/24 09:31:40;;;;;;;;;;;8.70;99.90;;;;;;5095242;28;19961;-89
2022/02/24 09:34:06;;;;;;;;;;;8.60;99.90;;;;;;5094297;28;19955;-88
2022/02/24 09:36:32;;;;;;;;;;;8.50;99.90;;;;;;5086900;28;19963;-87
2022/02/24 09:38:57;;;;;;;;;;;8.50;99.90;;;;;;5086278;28;19912;-86
2022/02/24 09:41:25;;;;;;;;;;;8.60;99.90;;;;;;5082731;28;20331;-90
2022/02/24 09:43:51;;;;;;;;;;;8.60;99.90;;;;;;5086836;28;19912;-89
2022/02/24 09:46:17;;;;;;;;;;;8.70;99.90;;;;;;5101804;28;19948;-85
2022/02/24 09:48:44;;;;;;;;;;;8.80;99.90;;;;;;5088854;28;20340;-89
2022/02/24 09:51:11;;;;;;;;;;;8.80;99.90;;;;;;5085386;28;19995;-87
2022/02/24 09:53:38;;;;;;;;;;;8.70;99.90;;;;;;5093335;28;19908;-88
2022/02/24 09:56:04;;;;;;;;;;;8.80;99.90;;;;;;5085536;28;19999;-88
2022/02/24 09:58:31;;;;;;;;;;;8.80;99.90;;;;;;5090039;28;19916;-87
2022/02/24 10:00:59;;;;;;;;;;;8.90;99.90;;;;;;5088245;28;19912;-87
2022/02/24 10:03:29;;;;;;;;;;;8.90;99.90;;;;;;5098304;28;19912;-86
2022/02/24 10:05:54;;;;;;;;;;;9.10;99.90;;;;;;5091075;28;19918;-85
2022/02/24 10:08:30;;;;;;;;;;;9.10;99.90;;;;;;5094423;28;19912;-82
2022/02/24 10:10:58;;;;;;;;;;;9.20;99.90;;;;;;5110762;28;19912;-84
2022/02/24 10:13:24;;;;;;;;;;;9.30;99.90;;;;;;5089440;28;20006;-87
2022/02/24 10:15:57;;;;;;;;;;;9.40;99.90;;;;;;5091835;28;20065;-84
2022/02/24 10:18:26;;;;;;;;;;;9.30;99.90;;;;;;5112197;28;19920;-88
2022/02/24 10:20:53;;;;;;;;;;;9.20;99.90;;;;;;5090863;28;19916;-88
2022/02/24 10:23:20;;;;;;;;;;;9.20;99.90;;;;;;5094842;28;20311;-85
2022/02/24 10:25:47;;;;;;;;;;;9.20;99.90;;;;;;5092641;28;19939;-87
2022/02/24 10:28:31;;;;;;;;;;;9.40;99.90;;;;;;5094466;28;19920;-87
2022/02/24 10:30:58;;;;;;;;;;;9.40;99.90;;;;;;5095267;28;19915;-85
2022/02/24 10:33:24;;;;;;;;;;;9.50;99.90;;;;;;5096988;28;19912;-82
2022/02/24 10:35:50;;;;;;;;;;;9.60;99.90;;;;;;5111315;28;19943;-85
2022/02/24 10:38:15;;;;;;;;;;;9.60;99.90;;;;;;5089833;28;19962;-81
2022/02/24 10:40:48;;;;;;;;;;;9.60;99.90;;;;;;5093151;28;19966;-84
2022/02/24 10:43:24;;;;;;;;;;;9.60;99.90;;;;;;5110174;28;19991;-83
2022/02/24 10:45:56;;;;;;;;;;;9.50;99.90;;;;;;5094819;28;19911;-83
2022/02/24 10:48:22;;;;;;;;;;;9.50;99.90;;;;;;5112838;28;19930;-83
2022/02/24 10:50:49;;;;;;;;;;;9.50;99.90;;;;;;5112031;28;19916;-82
2022/02/24 10:53:15;;;;;;;;;;;9.60;99.90;;;;;;5109471;28;20345;-82
2022/02/24 10:55:58;;;;;;;;;;;9.70;99.90;;;;;;5092802;28;19974;-82
2022/02/24 10:58:25;;;;;;;;;;;9.60;99.90;;;;;;5095352;28;20041;-81
2022/02/24 11:01:04;;;;;;;;;;;9.50;99.90;;;;;;5093871;28;20318;-83
2022/02/24 11:03:30;;;;;;;;;;;9.50;99.90;;;;;;5097155;28;19912;-82
2022/02/24 11:06:01;;;;;;;;;;;9.40;99.90;;;;;;5097268;28;19919;-82
2022/02/24 11:08:28;;;;;;;;;;;9.20;99.90;;;;;;5095081;28;19923;-82
2022/02/24 11:10:55;;;;;;;;;;;9.10;99.90;;;;;;5099608;28;19918;-82
2022/02/24 11:13:21;;;;;;;;;;;9.00;99.90;;;;;;5097697;28;19919;-83
2022/02/24 11:15:46;;;;;;;;;;;9.00;99.90;;;;;;5098456;28;19920;-83
2022/02/24 11:18:13;;;;;;;;;;;8.90;99.90;;;;;;5096521;28;19935;-81
2022/02/24 11:20:39;;;;;;;;;;;9.00;99.90;;;;;;5096540;28;20306;-88
2022/02/24 11:23:05;;;;;;;;;;;9.00;99.90;;;;;;5093263;27;19919;-84
2022/02/24 11:25:32;;;;;;;;;;;9.10;99.90;;;;;;5107981;28;19919;-83
2022/02/24 11:28:00;;;;;;;;;;;9.10;99.90;;;;;;5116804;28;19919;-85
2022/02/24 11:30:28;;;;;;;;;;;9.20;99.90;;;;;;5096719;28;19916;-83
2022/02/24 11:32:54;;;;;;;;;;;9.20;99.90;;;;;;5096713;28;19920;-82
2022/02/24 11:35:21;;;;;;;;;;;9.20;99.90;;;;;;5114783;28;19912;-83
2022/02/24 11:37:47;;;;;;;;;;;9.20;99.90;;;;;;5106572;28;19911;-83
2022/02/24 11:40:19;;;;;;;;;;;9.20;99.90;;;;;;5087593;28;19915;-83
2022/02/24 11:43:05;;;;;;;;;;;9.10;99.90;;;;;;5110495;28;20007;-84
2022/02/24 11:45:32;;;;;;;;;;;9.10;99.90;;;;;;5093948;28;19911;-83
2022/02/24 11:48:01;;;;;;;;;;;9.10;99.90;;;;;;5096807;28;19920;-83
2022/02/24 11:50:28;;;;;;;;;;;9.10;99.90;;;;;;5111626;28;19916;-81
2022/02/24 11:52:53;;;;;;;;;;;9.00;99.90;;;;;;5115854;28;20002;-82
2022/02/24 11:55:38;;;;;;;;;;;9.00;99.90;;;;;;5089477;28;19966;-83
2022/02/24 11:58:29;;;;;;;;;;;8.90;99.90;;;;;;5094999;28;19916;-83
2022/02/24 12:01:10;;;;;;;;;;;8.90;99.90;;;;;;5111819;28;19920;-84
2022/02/24 12:03:45;;;;;;;;;;;8.80;99.90;;;;;;5095462;28;19920;-83
2022/02/24 12:06:11;;;;;;;;;;;8.70;99.90;;;;;;5095917;28;20041;-83
2022/02/24 12:08:55;;;;;;;;;;;8.60;99.90;;;;;;5115533;28;19916;-84
2022/02/24 12:11:31;;;;;;;;;;;8.50;99.90;;;;;;5114790;28;20216;-85
2022/02/24 12:13:56;;;;;;;;;;;8.50;99.90;;;;;;5091186;28;19926;-86
2022/02/24 12:16:24;;;;;;;;;;;8.40;99.90;;;;;;5113523;28;19919;-87
2022/02/24 12:18:50;;;;;;;;;;;8.40;99.90;;;;;;5093225;28;20002;-88
2022/02/24 12:21:29;;;;;;;;;;;8.30;99.90;;;;;;5100563;28;19916;-85
2022/02/24 12:23:56;;;;;;;;;;;8.20;99.90;;;;;;5097934;28;19923;-87
2022/02/24 12:26:40;;;;;;;;;;;8.10;99.90;;;;;;5122138;27;19926;-88
2022/02/24 12:29:19;;;;;;;;;;;8.10;99.90;;;;;;5098007;28;19911;-86
2022/02/24 12:31:46;;;;;;;;;;;8.10;99.90;;;;;;5096958;28;19951;-90
2022/02/24 12:34:12;;;;;;;;;;;8.00;99.90;;;;;;5087084;28;20294;-84
2022/02/24 12:36:37;;;;;;;;;;;8.00;99.90;;;;;;5109336;28;19920;-88
2022/02/24 12:39:06;;;;;;;;;;;8.00;99.90;;;;;;5088738;28;19911;-88
2022/02/24 12:41:32;;;;;;;;;;;7.90;99.90;;;;;;5113597;28;19923;-88
2022/02/24 12:43:57;;;;;;;;;;;7.90;99.90;;;;;;5078821;28;19920;-88
2022/02/24 12:46:23;;;;;;;;;;;7.80;99.90;;;;;;5090224;28;19923;-87
2022/02/24 12:48:49;;;;;;;;;;;7.90;99.90;;;;;;5083563;28;20200;-84
2022/02/24 12:51:21;;;;;;;;;;;7.80;99.90;;;;;;5098182;28;19911;-86
2022/02/24 12:53:46;;;;;;;;;;;7.80;99.90;;;;;;5097779;28;19919;-84
2022/02/24 12:56:12;;;;;;;;;;;7.80;99.90;;;;;;5098282;28;19911;-87
2022/02/24 12:58:38;;;;;;;;;;;7.60;99.90;;;;;;5094697;28;19927;-84
2022/02/24 13:01:04;;;;;;;;;;;7.20;99.90;;;;;;5081296;28;19911;-84
2022/02/24 13:03:30;;;;;;;;;;;7.00;99.90;;;;;;5093599;28;19916;-88
2022/02/24 13:05:57;;;;;;;;;;;6.80;99.90;;;;;;5117013;28;19912;-88
2022/02/24 13:11:08;;;;;;;;;;;6.80;99.90;;;;;;5113143;28;20318;-85
2022/02/24 13:13:34;;;;;;;;;;;6.90;99.90;;;;;;5097200;28;19916;-87
2022/02/24 13:16:04;;;;;;;;;;;6.90;99.90;;;;;;5097362;28;19920;-89
2022/02/24 13:18:35;;;;;;;;;;;7.00;99.90;;;;;;5096655;28;19919;-87
2022/02/24 13:21:01;;;;;;;;;;;6.90;99.90;;;;;;5092519;28;19919;-89
2022/02/24 13:23:28;;;;;;;;;;;6.90;99.90;;;;;;5087073;28;19951;-91
2022/02/24 13:25:58;;;;;;;;;;;6.90;99.90;;;;;;5096119;28;19979;-88
2022/02/24 13:28:27;;;;;;;;;;;6.80;99.90;;;;;;5102889;28;19955;-87
2022/02/24 13:30:57;;;;;;;;;;;6.70;99.90;;;;;;5086479;28;19998;-88
2022/02/24 13:33:27;;;;;;;;;;;6.50;99.90;;;;;;5091714;28;19920;-86
2022/02/24 13:35:52;;;;;;;;;;;6.10;99.90;;;;;;5096471;28;19972;-83
2022/02/24 13:38:18;;;;;;;;;;;5.30;99.90;;;;;;5099861;22;19916;-89
2022/02/24 13:40:45;;;;;;;;;;;4.50;99.90;;;;;;5113504;28;19916;-87
2022/02/24 13:43:12;;;;;;;;;;;4.20;99.90;;;;;;5108674;28;19919;-87
2022/02/24 13:45:37;;;;;;;;;;;4.10;99.90;;;;;;5105506;28;19912;-89
2022/02/24 13:48:07;;;;;;;;;;;3.90;99.90;;;;;;5096795;28;19943;-86
2022/02/24 13:50:52;;;;;;;;;;;4.00;99.90;;;;;;5097501;28;19916;-83
2022/02/24 13:53:23;;;;;;;;;;;3.80;99.90;;;;;;5087639;28;20242;-85
2022/02/24 13:56:00;;;;;;;;;;;3.90;99.90;;;;;;5104076;28;19912;-85
2022/02/24 13:58:26;;;;;;;;;;;3.80;99.90;;;;;;5107315;28;20210;-87
2022/02/24 14:00:59;;;;;;;;;;;3.80;99.90;;;;;;5099685;28;19916;-84
2022/02/24 14:03:29;;;;;;;;;;;3.90;99.90;;;;;;5095200;28;19998;-85
2022/02/24 14:06:05;;;;;;;;;;;4.00;99.90;;;;;;5091442;28;19923;-85
2022/02/24 14:08:30;;;;;;;;;;;4.00;99.90;;;;;;5111321;28;19912;-84
2022/02/24 14:11:09;;;;;;;;;;;4.10;99.90;;;;;;5112806;28;19911;-84
2022/02/24 14:13:35;;;;;;;;;;;4.10;99.90;;;;;;5106591;28;19912;-85
2022/02/24 14:16:01;;;;;;;;;;;4.20;99.90;;;;;;5110547;28;20003;-83
2022/02/24 14:18:28;;;;;;;;;;;4.30;99.90;;;;;;5113804;28;19959;-83
2022/02/24 14:20:53;;;;;;;;;;;4.30;99.90;;;;;;5087890;28;19916;-85
2022/02/24 14:23:19;;;;;;;;;;;4.30;99.90;;;;;;5111854;28;20222;-83
2022/02/24 14:25:45;;;;;;;;;;;4.30;99.90;;;;;;5113020;28;19919;-82
2022/02/24 14:28:10;;;;;;;;;;;4.30;99.90;;;;;;5113275;28;19915;-83
2022/02/24 14:30:36;;;;;;;;;;;4.30;99.90;;;;;;5096778;28;19922;-85
2022/02/24 14:33:02;;;;;;;;;;;4.30;99.90;;;;;;5097672;28;19999;-86